createdAt,value
2019-02-15T00:01:26.307Z,32.3
2019-02-15T00:11:25.884Z,28.9
2019-02-15T00:21:26.803Z,28.1
2019-02-15T00:31:27.647Z,29.2
2019-02-15T00:41:26.139Z,28.9
2019-02-15T00:51:26.999Z,27.0
2019-02-15T01:01:26.775Z,28.8
2019-02-15T01:11:26.997Z,28.9
2019-02-15T01:21:25.672Z,27.1
2019-02-15T01:31:26.233Z,29.8
2019-02-15T01:41:25.846Z,28.8
2019-02-15T01:51:26.463Z,27.7
2019-02-15T02:01:26.206Z,26.2
2019-02-15T02:11:26.066Z,22.2
2019-02-15T02:21:25.943Z,23.6
2019-02-15T02:31:26.577Z,23.9
2019-02-15T02:41:26.851Z,21.8
2019-02-15T02:51:26.803Z,22.4
2019-02-15T03:01:26.399Z,24.1
2019-02-15T03:11:26.600Z,22.8
2019-02-15T03:21:26.387Z,23.5
2019-02-15T03:31:26.283Z,23.8
2019-02-15T03:41:27.553Z,21.2
2019-02-15T03:51:26.532Z,24.2
2019-02-15T04:01:26.316Z,23.7
2019-02-15T04:11:26.202Z,22.6
2019-02-15T04:21:26.393Z,21.4
2019-02-15T04:31:27.708Z,21.4
2019-02-15T04:41:26.559Z,21.6
2019-02-15T04:51:27.410Z,20.1
2019-02-15T05:01:26.139Z,21.1
2019-02-15T05:11:26.965Z,19.1
2019-02-15T05:21:25.854Z,20.9
2019-02-15T05:31:27.432Z,19.9
2019-02-15T05:41:25.964Z,18.6
2019-02-15T05:51:26.844Z,19.9
2019-02-15T06:01:28.613Z,19.4
2019-02-15T06:11:26.573Z,18.2
2019-02-15T06:21:27.452Z,17.4
2019-02-15T06:31:27.364Z,16.4
2019-02-15T06:41:26.784Z,15.2
2019-02-15T06:51:27.601Z,15.6
2019-02-15T07:01:26.479Z,15.5
2019-02-15T07:11:26.227Z,15.4
2019-02-15T07:21:26.971Z,16.8
2019-02-15T07:31:26.641Z,28.4
2019-02-15T07:41:26.893Z,17.2
2019-02-15T07:51:27.782Z,15.5
2019-02-15T08:01:26.660Z,16.4
2019-02-15T08:11:26.304Z,16.6
2019-02-15T08:21:27.251Z,14.9
2019-02-15T08:31:26.060Z,18.4
2019-02-15T08:41:25.903Z,22.2
2019-02-15T08:51:27.218Z,22.7
2019-02-15T09:01:26.719Z,21.0
2019-02-15T09:11:28.330Z,21.4
2019-02-15T09:21:28.826Z,20.1
2019-02-15T09:31:26.996Z,16.0
2019-02-15T09:41:26.859Z,17.4
2019-02-15T09:51:26.482Z,18.1
2019-02-15T10:01:26.131Z,15.7
2019-02-15T10:11:26.122Z,15.7
2019-02-15T10:21:26.229Z,16.0
2019-02-15T10:31:25.951Z,12.1
2019-02-15T10:41:26.586Z,11.3
2019-02-15T10:51:26.766Z,12.2
2019-02-15T11:01:27.566Z,13.4
2019-02-15T11:11:26.487Z,15.1
2019-02-15T11:21:27.859Z,12.4
2019-02-15T11:31:26.535Z,15.3
2019-02-15T11:41:29.847Z,15.7
2019-02-15T11:51:25.793Z,13.3
2019-02-15T12:01:30.828Z,14.6
2019-02-15T12:11:27.313Z,12.8
2019-02-15T12:21:26.559Z,12.4
2019-02-15T12:31:26.202Z,11.9
2019-02-15T12:41:25.893Z,12.3
2019-02-15T12:51:28.921Z,14.0
2019-02-15T13:01:27.142Z,13.3
2019-02-15T13:11:26.416Z,14.2
2019-02-15T13:21:26.905Z,13.9
2019-02-15T13:31:27.243Z,14.8
2019-02-15T13:41:28.731Z,16.4
2019-02-15T13:51:28.234Z,12.7
2019-02-15T14:01:27.756Z,14.0
2019-02-15T14:11:27.253Z,15.1
2019-02-15T14:21:28.084Z,16.4
2019-02-15T14:31:27.645Z,14.9
2019-02-15T14:41:26.251Z,15.8
2019-02-15T14:51:27.680Z,16.9
2019-02-15T15:01:27.839Z,16.9
2019-02-15T15:11:26.475Z,14.5
2019-02-15T15:21:27.970Z,16.6
2019-02-15T15:31:26.824Z,15.1
2019-02-15T15:41:27.327Z,17.1
2019-02-15T15:51:26.648Z,17.1
2019-02-15T16:01:28.042Z,18.1
2019-02-15T16:11:27.256Z,18.1
2019-02-15T16:21:26.710Z,18.0
2019-02-15T16:31:27.555Z,19.4
2019-02-15T16:41:26.599Z,19.9
2019-02-15T16:51:26.405Z,22.5
2019-02-15T17:01:26.144Z,23.3
2019-02-15T17:11:25.728Z,24.0
2019-02-15T17:21:26.974Z,24.0
2019-02-15T17:31:26.668Z,23.6
2019-02-15T17:41:26.542Z,25.3
2019-02-15T17:51:26.286Z,27.3
2019-02-15T18:01:26.497Z,27.6
2019-02-15T18:11:28.116Z,30.3
2019-02-15T18:21:26.331Z,33.0
2019-02-15T18:31:28.537Z,33.6
2019-02-15T18:41:26.460Z,38.1
2019-02-15T18:51:28.548Z,39.2
2019-02-15T19:01:31.948Z,39.2
2019-02-15T19:11:26.744Z,37.2
2019-02-15T19:21:27.385Z,34.8
2019-02-15T19:31:26.647Z,40.6
2019-02-15T19:41:27.193Z,43.5
2019-02-15T19:51:27.941Z,45.7
2019-02-15T20:01:27.211Z,46.9
2019-02-15T20:11:26.128Z,52.3
2019-02-15T20:21:26.312Z,56.5
2019-02-15T20:31:25.992Z,51.2
2019-02-15T20:41:26.846Z,48.5
2019-02-15T20:51:28.639Z,49.7
2019-02-15T21:01:26.860Z,46.9
2019-02-15T21:11:26.785Z,50.3
2019-02-15T21:21:26.730Z,49.6
2019-02-15T21:31:26.857Z,54.1
2019-02-15T21:41:26.366Z,51.5
2019-02-15T21:51:28.103Z,52.2
2019-02-15T22:01:28.060Z,52.0
2019-02-15T22:11:25.715Z,51.5
2019-02-15T22:21:27.463Z,52.6
2019-02-15T22:31:26.715Z,53.0
2019-02-15T22:41:26.324Z,52.4
2019-02-15T22:51:26.179Z,52.1
2019-02-15T23:01:25.828Z,54.8
2019-02-15T23:11:29.366Z,55.6
2019-02-15T23:21:26.358Z,56.3
2019-02-15T23:31:25.698Z,56.8
2019-02-15T23:41:27.926Z,57.7
2019-02-15T23:51:26.561Z,57.2
